sensor_id;sensor_type;location;lat;lon;timestamp;temperature;humidity
20744;DHT22;56303;52.160;-0.428;2022-09-09T00:02:10;17.10;99.90
20744;DHT22;56303;52.160;-0.428;2022-09-09T00:04:52;17.20;99.90
20744;DHT22;56303;52.160;-0.428;2022-09-09T00:07:38;17.30;99.90
20744;DHT22;56303;52.160;-0.428;2022-09-09T00:10:29;17.60;99.90
20744;DHT22;56303;52.160;-0.428;2022-09-09T00:13:13;17.40;99.90
20744;DHT22;56303;52.160;-0.428;2022-09-09T00:18:32;17.10;99.90
20744;DHT22;56303;52.160;-0.428;2022-09-09T00:23:39;17.40;99.90
20744;DHT22;56303;52.160;-0.428;2022-09-09T00:26:38;17.30;99.90
20744;DHT22;56303;52.160;-0.428;2022-09-09T00:31:45;17.20;99.90
20744;DHT22;56303;52.160;-0.428;2022-09-09T00:34:23;17.30;99.90
20744;DHT22;56303;52.160;-0.428;2022-09-09T00:36:53;16.90;99.90
20744;DHT22;56303;52.160;-0.428;2022-09-09T00:39:34;17.00;99.90
20744;DHT22;56303;52.160;-0.428;2022-09-09T00:42:13;17.10;99.90
20744;DHT22;56303;52.160;-0.428;2022-09-09T00:47:52;17.40;99.90
20744;DHT22;56303;52.160;-0.428;2022-09-09T00:50:35;17.50;99.90
20744;DHT22;56303;52.160;-0.428;2022-09-09T00:58:37;17.70;99.90
20744;DHT22;56303;52.160;-0.428;2022-09-09T01:01:09;17.70;99.90
20744;DHT22;56303;52.160;-0.428;2022-09-09T01:03:49;17.70;99.90
20744;DHT22;56303;52.160;-0.428;2022-09-09T01:06:32;17.50;99.90
20744;DHT22;56303;52.160;-0.428;2022-09-09T01:09:18;17.80;99.90
20744;DHT22;56303;52.160;-0.428;2022-09-09T01:11:51;17.80;99.90
20744;DHT22;56303;52.160;-0.428;2022-09-09T01:27:40;17.60;99.90
20744;DHT22;56303;52.160;-0.428;2022-09-09T01:30:11;17.60;99.90
20744;DHT22;56303;52.160;-0.428;2022-09-09T01:32:46;17.50;99.90
20744;DHT22;56303;52.160;-0.428;2022-09-09T01:35:39;17.70;99.90
20744;DHT22;56303;52.160;-0.428;2022-09-09T01:38:06;17.80;99.90
20744;DHT22;56303;52.160;-0.428;2022-09-09T01:40:33;17.80;99.90
20744;DHT22;56303;52.160;-0.428;2022-09-09T01:43:00;17.90;99.90
20744;DHT22;56303;52.160;-0.428;2022-09-09T01:45:27;18.00;99.90
20744;DHT22;56303;52.160;-0.428;2022-09-09T01:47:54;17.80;99.90
20744;DHT22;56303;52.160;-0.428;2022-09-09T01:50:21;18.00;99.90
20744;DHT22;56303;52.160;-0.428;2022-09-09T01:52:53;18.00;99.90
20744;DHT22;56303;52.160;-0.428;2022-09-09T01:55:32;18.10;99.90
20744;DHT22;56303;52.160;-0.428;2022-09-09T02:01:00;18.10;99.90
20744;DHT22;56303;52.160;-0.428;2022-09-09T02:03:29;18.00;99.90
20744;DHT22;56303;52.160;-0.428;2022-09-09T02:06:05;17.80;99.90
20744;DHT22;56303;52.160;-0.428;2022-09-09T02:08:45;17.90;99.90
20744;DHT22;56303;52.160;-0.428;2022-09-09T02:11:15;17.90;99.90
20744;DHT22;56303;52.160;-0.428;2022-09-09T02:13:47;17.80;99.90
20744;DHT22;56303;52.160;-0.428;2022-09-09T02:16:21;17.80;99.90
20744;DHT22;56303;52.160;-0.428;2022-09-09T02:19:12;17.90;99.90
20744;DHT22;56303;52.160;-0.428;2022-09-09T02:21:42;18.10;99.90
20744;DHT22;56303;52.160;-0.428;2022-09-09T02:24:13;17.80;99.90
20744;DHT22;56303;52.160;-0.428;2022-09-09T02:26:44;17.70;99.90
20744;DHT22;56303;52.160;-0.428;2022-09-09T02:29:23;17.70;99.90
20744;DHT22;56303;52.160;-0.428;2022-09-09T02:31:53;17.60;99.90
20744;DHT22;56303;52.160;-0.428;2022-09-09T02:34:22;17.80;99.90
20744;DHT22;56303;52.160;-0.428;2022-09-09T02:36:53;17.80;99.90
20744;DHT22;56303;52.160;-0.428;2022-09-09T02:39:21;17.80;99.90
20744;DHT22;56303;52.160;-0.428;2022-09-09T02:41:48;18.00;99.90
20744;DHT22;56303;52.160;-0.428;2022-09-09T02:44:17;18.00;99.90
20744;DHT22;56303;52.160;-0.428;2022-09-09T02:52:32;17.90;99.90
20744;DHT22;56303;52.160;-0.428;2022-09-09T02:57:49;17.90;99.90
20744;DHT22;56303;52.160;-0.428;2022-09-09T03:00:23;17.90;99.90
20744;DHT22;56303;52.160;-0.428;2022-09-09T03:02:50;17.70;99.90
20744;DHT22;56303;52.160;-0.428;2022-09-09T03:05:17;17.50;99.90
20744;DHT22;56303;52.160;-0.428;2022-09-09T03:07:44;17.50;99.90
20744;DHT22;56303;52.160;-0.428;2022-09-09T03:10:11;17.30;99.90
20744;DHT22;56303;52.160;-0.428;2022-09-09T03:12:38;17.60;99.90
20744;DHT22;56303;52.160;-0.428;2022-09-09T03:15:06;17.50;99.90
20744;DHT22;56303;52.160;-0.428;2022-09-09T03:17:33;17.50;99.90
20744;DHT22;56303;52.160;-0.428;2022-09-09T03:20:04;17.70;99.90
20744;DHT22;56303;52.160;-0.428;2022-09-09T03:22:31;17.60;99.90
20744;DHT22;56303;52.160;-0.428;2022-09-09T03:24:57;17.70;99.90
20744;DHT22;56303;52.160;-0.428;2022-09-09T03:27:24;17.60;99.90
20744;DHT22;56303;52.160;-0.428;2022-09-09T03:29:51;17.60;99.90
20744;DHT22;56303;52.160;-0.428;2022-09-09T03:32:19;17.70;99.90
20744;DHT22;56303;52.160;-0.428;2022-09-09T03:34:46;17.60;99.90
20744;DHT22;56303;52.160;-0.428;2022-09-09T03:37:13;17.50;99.90
20744;DHT22;56303;52.160;-0.428;2022-09-09T03:39:40;17.50;99.90
20744;DHT22;56303;52.160;-0.428;2022-09-09T03:42:07;17.40;99.90
20744;DHT22;56303;52.160;-0.428;2022-09-09T03:44:34;17.60;99.90
20744;DHT22;56303;52.160;-0.428;2022-09-09T03:47:01;17.50;99.90
20744;DHT22;56303;52.160;-0.428;2022-09-09T03:49:27;17.50;99.90
20744;DHT22;56303;52.160;-0.428;2022-09-09T03:51:57;17.50;99.90
20744;DHT22;56303;52.160;-0.428;2022-09-09T03:54:25;17.50;99.90
20744;DHT22;56303;52.160;-0.428;2022-09-09T03:56:52;17.50;99.90
20744;DHT22;56303;52.160;-0.428;2022-09-09T03:59:19;17.40;99.90
20744;DHT22;56303;52.160;-0.428;2022-09-09T04:01:47;17.50;99.90
20744;DHT22;56303;52.160;-0.428;2022-09-09T04:04:14;17.50;99.90
20744;DHT22;56303;52.160;-0.428;2022-09-09T04:06:41;17.50;99.90
20744;DHT22;56303;52.160;-0.428;2022-09-09T04:09:08;17.40;99.90
20744;DHT22;56303;52.160;-0.428;2022-09-09T04:11:34;17.20;99.90
20744;DHT22;56303;52.160;-0.428;2022-09-09T04:14:01;17.30;99.90
20744;DHT22;56303;52.160;-0.428;2022-09-09T04:16:28;17.30;99.90
20744;DHT22;56303;52.160;-0.428;2022-09-09T04:18:55;17.10;99.90
20744;DHT22;56303;52.160;-0.428;2022-09-09T04:21:22;17.00;99.90
20744;DHT22;56303;52.160;-0.428;2022-09-09T04:23:49;17.00;99.90
20744;DHT22;56303;52.160;-0.428;2022-09-09T04:26:16;17.00;99.90
20744;DHT22;56303;52.160;-0.428;2022-09-09T04:28:43;16.90;99.90
20744;DHT22;56303;52.160;-0.428;2022-09-09T04:31:16;17.10;99.90
20744;DHT22;56303;52.160;-0.428;2022-09-09T04:33:44;17.20;99.90
20744;DHT22;56303;52.160;-0.428;2022-09-09T04:36:11;16.80;99.90
20744;DHT22;56303;52.160;-0.428;2022-09-09T04:38:39;16.70;99.90
20744;DHT22;56303;52.160;-0.428;2022-09-09T04:41:06;16.20;99.90
20744;DHT22;56303;52.160;-0.428;2022-09-09T04:43:34;16.30;99.90
20744;DHT22;56303;52.160;-0.428;2022-09-09T04:46:01;16.10;99.90
20744;DHT22;56303;52.160;-0.428;2022-09-09T04:48:28;16.00;99.90
20744;DHT22;56303;52.160;-0.428;2022-09-09T04:50:59;16.00;99.90
20744;DHT22;56303;52.160;-0.428;2022-09-09T04:53:27;15.90;99.90
20744;DHT22;56303;52.160;-0.428;2022-09-09T04:56:04;16.00;99.90
20744;DHT22;56303;52.160;-0.428;2022-09-09T04:58:32;16.10;99.90
20744;DHT22;56303;52.160;-0.428;2022-09-09T05:01:04;16.10;99.90
20744;DHT22;56303;52.160;-0.428;2022-09-09T05:03:31;15.90;99.90
20744;DHT22;56303;52.160;-0.428;2022-09-09T05:08:31;15.80;99.90
20744;DHT22;56303;52.160;-0.428;2022-09-09T05:10:58;15.90;99.90
20744;DHT22;56303;52.160;-0.428;2022-09-09T05:13:26;16.00;99.90
20744;DHT22;56303;52.160;-0.428;2022-09-09T05:15:55;16.00;99.90
20744;DHT22;56303;52.160;-0.428;2022-09-09T05:18:22;15.90;99.90
20744;DHT22;56303;52.160;-0.428;2022-09-09T05:20:49;15.80;99.90
20744;DHT22;56303;52.160;-0.428;2022-09-09T05:23:17;15.80;99.90
20744;DHT22;56303;52.160;-0.428;2022-09-09T05:25:53;15.80;99.90
20744;DHT22;56303;52.160;-0.428;2022-09-09T05:28:20;15.70;99.90
20744;DHT22;56303;52.160;-0.428;2022-09-09T05:30:58;15.60;99.90
20744;DHT22;56303;52.160;-0.428;2022-09-09T05:33:26;15.80;99.90
20744;DHT22;56303;52.160;-0.428;2022-09-09T05:36:04;15.80;99.90
20744;DHT22;56303;52.160;-0.428;2022-09-09T05:38:32;15.90;99.90
20744;DHT22;56303;52.160;-0.428;2022-09-09T05:41:00;15.90;99.90
20744;DHT22;56303;52.160;-0.428;2022-09-09T05:43:28;15.90;99.90
20744;DHT22;56303;52.160;-0.428;2022-09-09T05:46:07;15.90;99.90
20744;DHT22;56303;52.160;-0.428;2022-09-09T05:48:36;15.80;99.90
20744;DHT22;56303;52.160;-0.428;2022-09-09T05:51:05;15.90;99.90
20744;DHT22;56303;52.160;-0.428;2022-09-09T05:53:35;16.10;99.90
20744;DHT22;56303;52.160;-0.428;2022-09-09T05:56:04;16.00;99.90
20744;DHT22;56303;52.160;-0.428;2022-09-09T05:58:32;15.80;99.90
20744;DHT22;56303;52.160;-0.428;2022-09-09T06:01:11;15.50;99.90
20744;DHT22;56303;52.160;-0.428;2022-09-09T06:03:40;15.30;99.90
20744;DHT22;56303;52.160;-0.428;2022-09-09T06:06:13;15.20;99.90
20744;DHT22;56303;52.160;-0.428;2022-09-09T06:08:42;15.50;99.90
20744;DHT22;56303;52.160;-0.428;2022-09-09T06:11:14;15.30;99.90
20744;DHT22;56303;52.160;-0.428;2022-09-09T06:13:42;15.50;99.90
20744;DHT22;56303;52.160;-0.428;2022-09-09T06:16:15;15.50;99.90
20744;DHT22;56303;52.160;-0.428;2022-09-09T06:18:43;15.50;99.90
20744;DHT22;56303;52.160;-0.428;2022-09-09T06:21:35;15.30;99.90
20744;DHT22;56303;52.160;-0.428;2022-09-09T06:24:04;15.60;99.90
20744;DHT22;56303;52.160;-0.428;2022-09-09T06:26:34;15.40;99.90
20744;DHT22;56303;52.160;-0.428;2022-09-09T06:29:03;15.60;99.90
20744;DHT22;56303;52.160;-0.428;2022-09-09T06:31:31;16.00;99.90
20744;DHT22;56303;52.160;-0.428;2022-09-09T06:34:01;15.80;99.90
20744;DHT22;56303;52.160;-0.428;2022-09-09T06:36:30;15.70;99.90
20744;DHT22;56303;52.160;-0.428;2022-09-09T06:38:57;15.90;99.90
20744;DHT22;56303;52.160;-0.428;2022-09-09T06:41:29;16.00;99.90
20744;DHT22;56303;52.160;-0.428;2022-09-09T06:43:56;15.80;99.90
20744;DHT22;56303;52.160;-0.428;2022-09-09T06:46:26;15.70;99.90
20744;DHT22;56303;52.160;-0.428;2022-09-09T06:48:55;15.90;99.90
20744;DHT22;56303;52.160;-0.428;2022-09-09T06:51:24;15.90;99.90
20744;DHT22;56303;52.160;-0.428;2022-09-09T06:53:54;15.70;99.90
20744;DHT22;56303;52.160;-0.428;2022-09-09T06:58:57;15.70;99.90
20744;DHT22;56303;52.160;-0.428;2022-09-09T07:01:27;15.90;99.90
20744;DHT22;56303;52.160;-0.428;2022-09-09T07:03:56;15.80;99.90
20744;DHT22;56303;52.160;-0.428;2022-09-09T07:06:27;15.80;99.90
20744;DHT22;56303;52.160;-0.428;2022-09-09T07:08:56;15.80;99.90
20744;DHT22;56303;52.160;-0.428;2022-09-09T07:11:26;15.40;99.90
20744;DHT22;56303;52.160;-0.428;2022-09-09T07:13:54;15.20;99.90
20744;DHT22;56303;52.160;-0.428;2022-09-09T07:16:22;15.40;99.90
20744;DHT22;56303;52.160;-0.428;2022-09-09T07:18:53;15.20;99.90
20744;DHT22;56303;52.160;-0.428;2022-09-09T07:21:22;15.50;99.90
20744;DHT22;56303;52.160;-0.428;2022-09-09T07:23:48;15.80;99.90
20744;DHT22;56303;52.160;-0.428;2022-09-09T07:26:20;15.50;99.90
20744;DHT22;56303;52.160;-0.428;2022-09-09T07:28:47;15.40;99.90
20744;DHT22;56303;52.160;-0.428;2022-09-09T07:31:20;15.80;99.90
20744;DHT22;56303;52.160;-0.428;2022-09-09T07:33:47;15.80;99.90
20744;DHT22;56303;52.160;-0.428;2022-09-09T07:36:26;15.90;99.90
20744;DHT22;56303;52.160;-0.428;2022-09-09T07:39:10;16.10;99.90
20744;DHT22;56303;52.160;-0.428;2022-09-09T07:41:43;15.80;99.90
20744;DHT22;56303;52.160;-0.428;2022-09-09T07:44:13;16.10;99.90
20744;DHT22;56303;52.160;-0.428;2022-09-09T07:46:40;16.30;99.90
20744;DHT22;56303;52.160;-0.428;2022-09-09T07:49:08;16.30;99.90
20744;DHT22;56303;52.160;-0.428;2022-09-09T07:51:38;16.30;99.90
20744;DHT22;56303;52.160;-0.428;2022-09-09T07:54:08;16.20;99.90
20744;DHT22;56303;52.160;-0.428;2022-09-09T07:56:36;16.20;99.90
20744;DHT22;56303;52.160;-0.428;2022-09-09T07:59:06;16.70;99.90
20744;DHT22;56303;52.160;-0.428;2022-09-09T08:01:36;16.80;99.90
20744;DHT22;56303;52.160;-0.428;2022-09-09T08:04:11;17.00;99.90
20744;DHT22;56303;52.160;-0.428;2022-09-09T08:06:45;17.20;99.90
20744;DHT22;56303;52.160;-0.428;2022-09-09T08:09:13;17.40;99.90
20744;DHT22;56303;52.160;-0.428;2022-09-09T08:11:41;17.30;99.90
20744;DHT22;56303;52.160;-0.428;2022-09-09T08:14:09;17.40;99.90
20744;DHT22;56303;52.160;-0.428;2022-09-09T08:16:44;17.40;99.90
20744;DHT22;56303;52.160;-0.428;2022-09-09T08:19:11;17.50;99.90
20744;DHT22;56303;52.160;-0.428;2022-09-09T08:21:39;17.30;99.90
20744;DHT22;56303;52.160;-0.428;2022-09-09T08:24:07;17.20;99.90
20744;DHT22;56303;52.160;-0.428;2022-09-09T08:26:41;17.40;99.90
20744;DHT22;56303;52.160;-0.428;2022-09-09T08:29:13;17.60;99.90
20744;DHT22;56303;52.160;-0.428;2022-09-09T08:31:42;17.70;99.90
20744;DHT22;56303;52.160;-0.428;2022-09-09T08:34:10;17.70;99.90
20744;DHT22;56303;52.160;-0.428;2022-09-09T08:36:41;17.50;99.90
20744;DHT22;56303;52.160;-0.428;2022-09-09T08:39:11;17.50;99.90
20744;DHT22;56303;52.160;-0.428;2022-09-09T08:57:55;17.30;99.90
20744;DHT22;56303;52.160;-0.428;2022-09-09T09:00:22;17.30;99.90
20744;DHT22;56303;52.160;-0.428;2022-09-09T09:05:46;17.30;99.90
20744;DHT22;56303;52.160;-0.428;2022-09-09T09:08:43;17.60;99.90
20744;DHT22;56303;52.160;-0.428;2022-09-09T09:11:14;17.60;99.90
20744;DHT22;56303;52.160;-0.428;2022-09-09T09:13:59;17.20;99.90
20744;DHT22;56303;52.160;-0.428;2022-09-09T09:16:32;17.10;99.90
20744;DHT22;56303;52.160;-0.428;2022-09-09T09:19:00;17.00;99.90
20744;DHT22;56303;52.160;-0.428;2022-09-09T09:21:39;17.20;99.90
20744;DHT22;56303;52.160;-0.428;2022-09-09T09:24:21;17.10;99.90
20744;DHT22;56303;52.160;-0.428;2022-09-09T09:26:50;17.10;99.90
20744;DHT22;56303;52.160;-0.428;2022-09-09T09:29:19;17.30;99.90
20744;DHT22;56303;52.160;-0.428;2022-09-09T09:31:55;17.60;99.90
20744;DHT22;56303;52.160;-0.428;2022-09-09T09:34:24;17.50;99.90
20744;DHT22;56303;52.160;-0.428;2022-09-09T09:36:59;17.50;99.90
20744;DHT22;56303;52.160;-0.428;2022-09-09T09:39:31;17.60;99.90
20744;DHT22;56303;52.160;-0.428;2022-09-09T09:42:23;17.90;99.90
20744;DHT22;56303;52.160;-0.428;2022-09-09T09:44:50;18.00;99.90
20744;DHT22;56303;52.160;-0.428;2022-09-09T09:47:21;18.20;99.90
20744;DHT22;56303;52.160;-0.428;2022-09-09T09:49:59;18.40;99.90
20744;DHT22;56303;52.160;-0.428;2022-09-09T09:52:29;18.20;99.90
20744;DHT22;56303;52.160;-0.428;2022-09-09T09:54:57;18.50;99.90
20744;DHT22;56303;52.160;-0.428;2022-09-09T09:57:33;18.60;99.90
20744;DHT22;56303;52.160;-0.428;2022-09-09T10:00:18;18.40;99.90
20744;DHT22;56303;52.160;-0.428;2022-09-09T10:02:46;18.70;99.90
20744;DHT22;56303;52.160;-0.428;2022-09-09T10:07:43;18.80;99.90
20744;DHT22;56303;52.160;-0.428;2022-09-09T10:10:31;18.90;99.90
20744;DHT22;56303;52.160;-0.428;2022-09-09T10:13:24;18.70;99.90
20744;DHT22;56303;52.160;-0.428;2022-09-09T10:15:58;18.70;99.90
20744;DHT22;56303;52.160;-0.428;2022-09-09T10:32:40;19.60;99.90
20744;DHT22;56303;52.160;-0.428;2022-09-09T10:41:00;20.50;99.90
20744;DHT22;56303;52.160;-0.428;2022-09-09T10:43:39;20.30;99.90
20744;DHT22;56303;52.160;-0.428;2022-09-09T10:49:51;20.80;99.90
20744;DHT22;56303;52.160;-0.428;2022-09-09T10:52:29;20.70;99.90
20744;DHT22;56303;52.160;-0.428;2022-09-09T10:55:20;20.50;99.90
20744;DHT22;56303;52.160;-0.428;2022-09-09T10:57:58;20.20;99.90
20744;DHT22;56303;52.160;-0.428;2022-09-09T11:00:46;20.50;99.90
20744;DHT22;56303;52.160;-0.428;2022-09-09T11:03:22;21.00;99.90
20744;DHT22;56303;52.160;-0.428;2022-09-09T11:08:32;21.10;99.90
20744;DHT22;56303;52.160;-0.428;2022-09-09T11:16:25;20.90;99.90
20744;DHT22;56303;52.160;-0.428;2022-09-09T11:19:46;21.30;99.90
20744;DHT22;56303;52.160;-0.428;2022-09-09T11:21:49;21.70;99.90
20744;DHT22;56303;52.160;-0.428;2022-09-09T11:24:26;21.50;99.90
20744;DHT22;56303;52.160;-0.428;2022-09-09T11:27:26;21.30;99.90
20744;DHT22;56303;52.160;-0.428;2022-09-09T11:30:19;20.90;99.90
20744;DHT22;56303;52.160;-0.428;2022-09-09T11:38:52;21.60;99.90
20744;DHT22;56303;52.160;-0.428;2022-09-09T11:41:20;21.70;99.90
20744;DHT22;56303;52.160;-0.428;2022-09-09T11:43:50;21.60;99.90
20744;DHT22;56303;52.160;-0.428;2022-09-09T11:46:34;21.80;99.90
20744;DHT22;56303;52.160;-0.428;2022-09-09T11:49:05;21.90;99.90
20744;DHT22;56303;52.160;-0.428;2022-09-09T11:51:34;22.10;99.90
20744;DHT22;56303;52.160;-0.428;2022-09-09T11:54:27;22.30;99.90
20744;DHT22;56303;52.160;-0.428;2022-09-09T11:56:56;22.00;99.90
20744;DHT22;56303;52.160;-0.428;2022-09-09T11:59:33;22.50;99.90
20744;DHT22;56303;52.160;-0.428;2022-09-09T12:02:02;22.80;99.90
20744;DHT22;56303;52.160;-0.428;2022-09-09T12:04:38;22.90;99.90
20744;DHT22;56303;52.160;-0.428;2022-09-09T12:17:19;23.70;99.90
20744;DHT22;56303;52.160;-0.428;2022-09-09T12:19:47;23.60;99.90
20744;DHT22;56303;52.160;-0.428;2022-09-09T12:24:49;22.20;99.90
20744;DHT22;56303;52.160;-0.428;2022-09-09T12:27:25;21.40;99.90
20744;DHT22;56303;52.160;-0.428;2022-09-09T12:30:20;20.90;99.90
20744;DHT22;56303;52.160;-0.428;2022-09-09T12:33:02;21.00;99.90
20744;DHT22;56303;52.160;-0.428;2022-09-09T12:35:35;21.70;99.90
20744;DHT22;56303;52.160;-0.428;2022-09-09T12:38:06;21.70;99.90
20744;DHT22;56303;52.160;-0.428;2022-09-09T12:40:38;22.10;99.90
20744;DHT22;56303;52.160;-0.428;2022-09-09T12:43:18;22.80;99.90
20744;DHT22;56303;52.160;-0.428;2022-09-09T12:45:47;23.70;99.90
20744;DHT22;56303;52.160;-0.428;2022-09-09T12:48:18;23.10;99.90
20744;DHT22;56303;52.160;-0.428;2022-09-09T12:50:49;22.60;99.90
20744;DHT22;56303;52.160;-0.428;2022-09-09T12:53:31;22.60;99.90
20744;DHT22;56303;52.160;-0.428;2022-09-09T12:56:06;22.50;99.90
20744;DHT22;56303;52.160;-0.428;2022-09-09T12:58:36;22.30;99.90
20744;DHT22;56303;52.160;-0.428;2022-09-09T13:01:06;22.50;99.90
20744;DHT22;56303;52.160;-0.428;2022-09-09T13:03:44;22.50;99.90
20744;DHT22;56303;52.160;-0.428;2022-09-09T13:06:18;22.50;99.90
20744;DHT22;56303;52.160;-0.428;2022-09-09T13:08:56;22.20;99.90
20744;DHT22;56303;52.160;-0.428;2022-09-09T13:11:30;22.20;99.90
20744;DHT22;56303;52.160;-0.428;2022-09-09T13:13:58;22.40;99.90
20744;DHT22;56303;52.160;-0.428;2022-09-09T13:20:16;23.30;99.90
20744;DHT22;56303;52.160;-0.428;2022-09-09T13:22:44;22.70;99.90
20744;DHT22;56303;52.160;-0.428;2022-09-09T13:27:40;21.40;99.90
20744;DHT22;56303;52.160;-0.428;2022-09-09T13:30:22;20.50;99.90
20744;DHT22;56303;52.160;-0.428;2022-09-09T13:35:55;20.90;99.90
20744;DHT22;56303;52.160;-0.428;2022-09-09T13:38:23;21.00;99.90
20744;DHT22;56303;52.160;-0.428;2022-09-09T13:41:06;20.90;99.90
20744;DHT22;56303;52.160;-0.428;2022-09-09T13:43:38;22.00;99.90
20744;DHT22;56303;52.160;-0.428;2022-09-09T13:46:28;22.30;99.90
20744;DHT22;56303;52.160;-0.428;2022-09-09T13:49:02;22.00;99.90
20744;DHT22;56303;52.160;-0.428;2022-09-09T13:51:47;21.90;99.90
20744;DHT22;56303;52.160;-0.428;2022-09-09T13:54:16;21.90;99.90
20744;DHT22;56303;52.160;-0.428;2022-09-09T13:56:44;21.80;99.90
20744;DHT22;56303;52.160;-0.428;2022-09-09T13:59:16;21.50;99.90
20744;DHT22;56303;52.160;-0.428;2022-09-09T14:01:45;21.70;99.90
20744;DHT22;56303;52.160;-0.428;2022-09-09T14:04:12;21.60;99.90
20744;DHT22;56303;52.160;-0.428;2022-09-09T14:06:39;21.40;99.90
20744;DHT22;56303;52.160;-0.428;2022-09-09T14:09:09;21.40;99.90
20744;DHT22;56303;52.160;-0.428;2022-09-09T14:11:37;21.70;99.90
20744;DHT22;56303;52.160;-0.428;2022-09-09T14:14:04;22.00;99.90
20744;DHT22;56303;52.160;-0.428;2022-09-09T14:16:32;21.90;99.90
20744;DHT22;56303;52.160;-0.428;2022-09-09T14:19:00;22.00;99.90
20744;DHT22;56303;52.160;-0.428;2022-09-09T14:21:27;21.70;99.90
20744;DHT22;56303;52.160;-0.428;2022-09-09T14:23:54;21.20;99.90
20744;DHT22;56303;52.160;-0.428;2022-09-09T14:26:21;20.90;99.90
20744;DHT22;56303;52.160;-0.428;2022-09-09T14:28:48;21.20;99.90
20744;DHT22;56303;52.160;-0.428;2022-09-09T14:31:22;22.10;99.90
20744;DHT22;56303;52.160;-0.428;2022-09-09T14:33:49;22.10;99.90
20744;DHT22;56303;52.160;-0.428;2022-09-09T14:36:17;21.60;99.90
20744;DHT22;56303;52.160;-0.428;2022-09-09T14:38:44;21.60;99.90
20744;DHT22;56303;52.160;-0.428;2022-09-09T14:41:13;21.50;99.90
20744;DHT22;56303;52.160;-0.428;2022-09-09T14:43:41;21.60;99.90
20744;DHT22;56303;52.160;-0.428;2022-09-09T14:46:10;22.20;99.90
20744;DHT22;56303;52.160;-0.428;2022-09-09T14:48:38;22.80;99.90
20744;DHT22;56303;52.160;-0.428;2022-09-09T14:51:10;23.00;99.90
20744;DHT22;56303;52.160;-0.428;2022-09-09T14:53:37;23.50;99.90
20744;DHT22;56303;52.160;-0.428;2022-09-09T14:56:09;23.80;99.90
20744;DHT22;56303;52.160;-0.428;2022-09-09T14:58:38;23.00;99.90
20744;DHT22;56303;52.160;-0.428;2022-09-09T15:01:10;22.00;99.90
20744;DHT22;56303;52.160;-0.428;2022-09-09T15:03:39;21.50;99.90
20744;DHT22;56303;52.160;-0.428;2022-09-09T15:06:15;21.40;99.90
20744;DHT22;56303;52.160;-0.428;2022-09-09T15:08:43;21.40;99.90
20744;DHT22;56303;52.160;-0.428;2022-09-09T15:11:11;21.30;99.90
20744;DHT22;56303;52.160;-0.428;2022-09-09T15:13:40;21.10;99.90
20744;DHT22;56303;52.160;-0.428;2022-09-09T15:18:35;21.50;99.90
20744;DHT22;56303;52.160;-0.428;2022-09-09T15:21:03;21.30;99.90
20744;DHT22;56303;52.160;-0.428;2022-09-09T15:23:35;21.30;99.90
20744;DHT22;56303;52.160;-0.428;2022-09-09T15:26:03;21.20;99.90
20744;DHT22;56303;52.160;-0.428;2022-09-09T15:28:32;21.40;99.90
20744;DHT22;56303;52.160;-0.428;2022-09-09T15:31:10;21.20;99.90
20744;DHT22;56303;52.160;-0.428;2022-09-09T15:33:37;21.60;99.90
20744;DHT22;56303;52.160;-0.428;2022-09-09T15:36:21;21.70;99.90
20744;DHT22;56303;52.160;-0.428;2022-09-09T15:38:49;21.40;99.90
20744;DHT22;56303;52.160;-0.428;2022-09-09T15:41:18;20.90;99.90
20744;DHT22;56303;52.160;-0.428;2022-09-09T15:43:47;20.90;99.90
20744;DHT22;56303;52.160;-0.428;2022-09-09T15:46:25;20.70;99.90
20744;DHT22;56303;52.160;-0.428;2022-09-09T15:48:57;20.80;99.90
20744;DHT22;56303;52.160;-0.428;2022-09-09T15:51:25;20.90;99.90
20744;DHT22;56303;52.160;-0.428;2022-09-09T15:54:15;21.00;99.90
20744;DHT22;56303;52.160;-0.428;2022-09-09T15:56:44;21.10;99.90
20744;DHT22;56303;52.160;-0.428;2022-09-09T15:59:11;20.80;99.90
20744;DHT22;56303;52.160;-0.428;2022-09-09T16:01:39;20.90;99.90
20744;DHT22;56303;52.160;-0.428;2022-09-09T16:04:06;20.60;99.90
20744;DHT22;56303;52.160;-0.428;2022-09-09T16:06:33;20.60;99.90
20744;DHT22;56303;52.160;-0.428;2022-09-09T16:09:03;20.50;99.90
20744;DHT22;56303;52.160;-0.428;2022-09-09T16:11:33;20.60;99.90
20744;DHT22;56303;52.160;-0.428;2022-09-09T16:14:03;20.20;99.90
20744;DHT22;56303;52.160;-0.428;2022-09-09T16:16:30;20.90;99.90
20744;DHT22;56303;52.160;-0.428;2022-09-09T16:19:00;21.60;99.90
20744;DHT22;56303;52.160;-0.428;2022-09-09T16:21:30;22.20;99.90
20744;DHT22;56303;52.160;-0.428;2022-09-09T16:23:59;21.90;99.90
20744;DHT22;56303;52.160;-0.428;2022-09-09T16:26:28;22.40;99.90
20744;DHT22;56303;52.160;-0.428;2022-09-09T16:28:55;22.80;99.90
20744;DHT22;56303;52.160;-0.428;2022-09-09T16:31:25;22.60;99.90
20744;DHT22;56303;52.160;-0.428;2022-09-09T16:33:54;22.00;99.90
20744;DHT22;56303;52.160;-0.428;2022-09-09T16:36:23;21.80;99.90
20744;DHT22;56303;52.160;-0.428;2022-09-09T16:38:54;22.00;99.90
20744;DHT22;56303;52.160;-0.428;2022-09-09T16:41:21;21.60;99.90
20744;DHT22;56303;52.160;-0.428;2022-09-09T16:43:53;21.00;99.90
20744;DHT22;56303;52.160;-0.428;2022-09-09T16:46:21;21.60;99.90
20744;DHT22;56303;52.160;-0.428;2022-09-09T16:48:48;22.00;99.90
20744;DHT22;56303;52.160;-0.428;2022-09-09T16:51:17;22.70;99.90
20744;DHT22;56303;52.160;-0.428;2022-09-09T16:53:44;22.80;99.90
20744;DHT22;56303;52.160;-0.428;2022-09-09T16:56:20;22.60;99.90
20744;DHT22;56303;52.160;-0.428;2022-09-09T16:58:52;22.40;99.90
20744;DHT22;56303;52.160;-0.428;2022-09-09T17:01:18;22.70;99.90
20744;DHT22;56303;52.160;-0.428;2022-09-09T17:03:45;22.50;99.90
20744;DHT22;56303;52.160;-0.428;2022-09-09T17:06:14;21.70;99.90
20744;DHT22;56303;52.160;-0.428;2022-09-09T17:08:41;21.80;99.90
20744;DHT22;56303;52.160;-0.428;2022-09-09T17:11:16;21.00;99.90
20744;DHT22;56303;52.160;-0.428;2022-09-09T17:13:47;20.70;99.90
20744;DHT22;56303;52.160;-0.428;2022-09-09T17:16:16;20.60;99.90
20744;DHT22;56303;52.160;-0.428;2022-09-09T17:18:44;20.50;99.90
20744;DHT22;56303;52.160;-0.428;2022-09-09T17:21:14;20.20;99.90
20744;DHT22;56303;52.160;-0.428;2022-09-09T17:23:42;20.30;99.90
20744;DHT22;56303;52.160;-0.428;2022-09-09T17:26:11;20.30;99.90
20744;DHT22;56303;52.160;-0.428;2022-09-09T17:28:39;20.10;99.90
20744;DHT22;56303;52.160;-0.428;2022-09-09T17:31:08;20.00;99.90
20744;DHT22;56303;52.160;-0.428;2022-09-09T17:33:38;20.10;99.90
20744;DHT22;56303;52.160;-0.428;2022-09-09T17:36:14;20.30;99.90
20744;DHT22;56303;52.160;-0.428;2022-09-09T17:38:41;20.20;99.90
20744;DHT22;56303;52.160;-0.428;2022-09-09T17:41:17;20.40;99.90
20744;DHT22;56303;52.160;-0.428;2022-09-09T17:43:44;20.50;99.90
20744;DHT22;56303;52.160;-0.428;2022-09-09T17:46:15;20.50;99.90
20744;DHT22;56303;52.160;-0.428;2022-09-09T17:48:43;20.90;99.90
20744;DHT22;56303;52.160;-0.428;2022-09-09T17:51:16;21.20;99.90
20744;DHT22;56303;52.160;-0.428;2022-09-09T17:53:47;21.10;99.90